sensor_id;sensor_type;location;lat;lon;timestamp;pressure;altitude;pressure_sealevel;temperature;humidity
38630;BME280;24384;51.988;4.644;2023-04-26T00:00:12;102044.97;;;6.08;76.65
38630;BME280;24384;51.988;4.644;2023-04-26T00:02:38;102050.25;;;6.19;74.46
38630;BME280;24384;51.988;4.644;2023-04-26T00:05:04;102045.84;;;6.06;75.90
38630;BME280;24384;51.988;4.644;2023-04-26T00:07:30;102055.41;;;6.02;76.67
38630;BME280;24384;51.988;4.644;2023-04-26T00:09:55;102047.50;;;5.96;76.44
38630;BME280;24384;51.988;4.644;2023-04-26T00:12:20;102050.06;;;5.87;77.19
38630;BME280;24384;51.988;4.644;2023-04-26T00:14:46;102044.81;;;5.85;76.72
38630;BME280;24384;51.988;4.644;2023-04-26T00:17:11;102048.28;;;5.78;76.93
38630;BME280;24384;51.988;4.644;2023-04-26T00:19:36;102040.38;;;5.70;76.61
38630;BME280;24384;51.988;4.644;2023-04-26T00:22:06;102044.84;;;5.90;74.34
38630;BME280;24384;51.988;4.644;2023-04-26T00:24:33;102046.53;;;5.80;76.03
38630;BME280;24384;51.988;4.644;2023-04-26T00:26:58;102049.13;;;5.76;78.31
38630;BME280;24384;51.988;4.644;2023-04-26T00:29:30;102048.28;;;5.77;75.85
38630;BME280;24384;51.988;4.644;2023-04-26T00:31:55;102040.41;;;5.75;75.39
38630;BME280;24384;51.988;4.644;2023-04-26T00:34:21;102045.66;;;5.80;74.62
38630;BME280;24384;51.988;4.644;2023-04-26T00:36:46;102040.44;;;5.83;74.29
38630;BME280;24384;51.988;4.644;2023-04-26T00:39:11;102040.38;;;5.69;75.42
38630;BME280;24384;51.988;4.644;2023-04-26T00:41:36;102040.25;;;5.52;76.07
38630;BME280;24384;51.988;4.644;2023-04-26T00:44:02;102041.81;;;5.30;78.94
38630;BME280;24384;51.988;4.644;2023-04-26T00:46:27;102049.50;;;5.08;81.46
38630;BME280;24384;51.988;4.644;2023-04-26T00:48:53;102042.63;;;5.21;78.98
38630;BME280;24384;51.988;4.644;2023-04-26T00:51:19;102047.84;;;5.18;79.13
38630;BME280;24384;51.988;4.644;2023-04-26T00:53:44;102043.50;;;5.23;80.30
38630;BME280;24384;51.988;4.644;2023-04-26T00:56:09;102041.78;;;5.22;79.86
38630;BME280;24384;51.988;4.644;2023-04-26T00:58:36;102042.63;;;5.19;79.90
38630;BME280;24384;51.988;4.644;2023-04-26T01:01:01;102035.63;;;5.17;79.50
38630;BME280;24384;51.988;4.644;2023-04-26T01:03:27;102036.56;;;5.24;78.59
38630;BME280;24384;51.988;4.644;2023-04-26T01:05:52;102032.22;;;5.26;78.08
38630;BME280;24384;51.988;4.644;2023-04-26T01:08:17;102036.56;;;5.25;78.42
38630;BME280;24384;51.988;4.644;2023-04-26T01:10:45;102038.28;;;5.23;79.61
38630;BME280;24384;51.988;4.644;2023-04-26T01:13:10;102035.69;;;5.25;80.08
38630;BME280;24384;51.988;4.644;2023-04-26T01:15:35;102040.88;;;5.20;80.71
38630;BME280;24384;51.988;4.644;2023-04-26T01:18:02;102044.31;;;5.13;81.13
38630;BME280;24384;51.988;4.644;2023-04-26T01:20:27;102035.63;;;5.17;81.15
38630;BME280;24384;51.988;4.644;2023-04-26T01:22:52;102044.22;;;5.02;82.67
38630;BME280;24384;51.988;4.644;2023-04-26T01:25:18;102049.44;;;5.00;82.52
38630;BME280;24384;51.988;4.644;2023-04-26T01:27:44;102050.13;;;4.84;82.21
38630;BME280;24384;51.988;4.644;2023-04-26T01:30:09;102051.06;;;4.92;81.94
38630;BME280;24384;51.988;4.644;2023-04-26T01:32:35;102040.69;;;4.98;81.68
38630;BME280;24384;51.988;4.644;2023-04-26T01:35:00;102044.97;;;4.90;82.53
38630;BME280;24384;51.988;4.644;2023-04-26T01:37:25;102047.53;;;4.84;82.15
38630;BME280;24384;51.988;4.644;2023-04-26T01:39:50;102045.81;;;4.88;82.45
38630;BME280;24384;51.988;4.644;2023-04-26T01:42:15;102044.78;;;4.72;81.68
38630;BME280;24384;51.988;4.644;2023-04-26T01:44:41;102036.94;;;4.70;81.86
38630;BME280;24384;51.988;4.644;2023-04-26T01:47:06;102040.41;;;4.71;81.59
38630;BME280;24384;51.988;4.644;2023-04-26T01:49:31;102042.25;;;4.81;80.44
38630;BME280;24384;51.988;4.644;2023-04-26T01:51:57;102046.34;;;4.53;81.78
38630;BME280;24384;51.988;4.644;2023-04-26T01:54:22;102039.50;;;4.67;81.10
38630;BME280;24384;51.988;4.644;2023-04-26T01:56:48;102045.50;;;4.58;81.53
38630;BME280;24384;51.988;4.644;2023-04-26T01:59:14;102038.44;;;4.48;82.42
38630;BME280;24384;51.988;4.644;2023-04-26T02:01:42;102040.31;;;4.63;80.79
38630;BME280;24384;51.988;4.644;2023-04-26T02:04:08;102042.91;;;4.61;81.71
38630;BME280;24384;51.988;4.644;2023-04-26T02:06:33;102048.06;;;4.54;82.22
38630;BME280;24384;51.988;4.644;2023-04-26T02:08:58;102049.81;;;4.53;81.03
38630;BME280;24384;51.988;4.644;2023-04-26T02:11:23;102041.03;;;4.46;81.83
38630;BME280;24384;51.988;4.644;2023-04-26T02:13:50;102041.97;;;4.52;81.57
38630;BME280;24384;51.988;4.644;2023-04-26T02:16:15;102048.03;;;4.51;80.95
38630;BME280;24384;51.988;4.644;2023-04-26T02:18:41;102038.41;;;4.45;81.59
38630;BME280;24384;51.988;4.644;2023-04-26T02:21:09;102051.63;;;4.59;80.91
38630;BME280;24384;51.988;4.644;2023-04-26T02:23:35;102044.91;;;4.82;78.78
38630;BME280;24384;51.988;4.644;2023-04-26T02:26:00;102040.41;;;4.71;78.42
38630;BME280;24384;51.988;4.644;2023-04-26T02:28:25;102044.84;;;4.78;78.28
38630;BME280;24384;51.988;4.644;2023-04-26T02:30:50;102035.00;;;4.55;79.46
38630;BME280;24384;51.988;4.644;2023-04-26T02:33:15;102042.91;;;4.60;79.88
38630;BME280;24384;51.988;4.644;2023-04-26T02:35:41;102040.19;;;4.49;80.45
38630;BME280;24384;51.988;4.644;2023-04-26T02:38:06;102038.59;;;4.63;79.98
38630;BME280;24384;51.988;4.644;2023-04-26T02:40:31;102039.53;;;4.70;78.92
38630;BME280;24384;51.988;4.644;2023-04-26T02:42:56;102039.63;;;4.79;78.58
38630;BME280;24384;51.988;4.644;2023-04-26T02:45:21;102031.81;;;4.81;79.50
38630;BME280;24384;51.988;4.644;2023-04-26T02:47:47;102030.84;;;4.71;80.64
38630;BME280;24384;51.988;4.644;2023-04-26T02:50:12;102023.78;;;4.64;80.93
38630;BME280;24384;51.988;4.644;2023-04-26T02:52:37;102035.19;;;4.71;81.41
38630;BME280;24384;51.988;4.644;2023-04-26T02:55:02;102023.72;;;4.58;82.22
38630;BME280;24384;51.988;4.644;2023-04-26T02:57:28;102025.47;;;4.56;81.48
38630;BME280;24384;51.988;4.644;2023-04-26T02:59:53;102028.06;;;4.54;82.13
38630;BME280;24384;51.988;4.644;2023-04-26T03:02:19;102024.47;;;4.46;82.40
38630;BME280;24384;51.988;4.644;2023-04-26T03:04:45;102023.69;;;4.55;82.30
38630;BME280;24384;51.988;4.644;2023-04-26T03:07:11;102019.41;;;4.61;81.52
38630;BME280;24384;51.988;4.644;2023-04-26T03:09:36;102027.16;;;4.54;81.50
38630;BME280;24384;51.988;4.644;2023-04-26T03:12:05;102026.38;;;4.59;81.02
38630;BME280;24384;51.988;4.644;2023-04-26T03:14:30;102021.97;;;4.57;82.12
38630;BME280;24384;51.988;4.644;2023-04-26T03:16:59;102021.09;;;4.56;81.49
38630;BME280;24384;51.988;4.644;2023-04-26T03:19:24;102015.88;;;4.56;81.80
38630;BME280;24384;51.988;4.644;2023-04-26T03:21:51;102018.53;;;4.59;82.16
38630;BME280;24384;51.988;4.644;2023-04-26T03:24:16;102019.41;;;4.61;82.36
38630;BME280;24384;51.988;4.644;2023-04-26T03:26:41;102015.81;;;4.50;82.18
38630;BME280;24384;51.988;4.644;2023-04-26T03:29:06;102022.97;;;4.66;81.41
38630;BME280;24384;51.988;4.644;2023-04-26T03:31:32;102020.72;;;4.24;83.05
38630;BME280;24384;51.988;4.644;2023-04-26T03:33:57;102019.00;;;4.24;84.11
38630;BME280;24384;51.988;4.644;2023-04-26T03:36:22;102011.19;;;4.27;84.50
38630;BME280;24384;51.988;4.644;2023-04-26T03:38:47;102010.38;;;4.30;83.82
38630;BME280;24384;51.988;4.644;2023-04-26T03:41:13;102013.81;;;4.29;84.20
38630;BME280;24384;51.988;4.644;2023-04-26T03:43:38;102011.19;;;4.27;84.19
38630;BME280;24384;51.988;4.644;2023-04-26T03:46:03;102006.97;;;4.36;84.03
38630;BME280;24384;51.988;4.644;2023-04-26T03:48:28;102006.03;;;4.32;84.19
38630;BME280;24384;51.988;4.644;2023-04-26T03:50:55;102013.06;;;4.38;84.47
38630;BME280;24384;51.988;4.644;2023-04-26T03:53:20;102003.53;;;4.43;83.53
38630;BME280;24384;51.988;4.644;2023-04-26T03:55:45;101998.38;;;4.49;83.10
38630;BME280;24384;51.988;4.644;2023-04-26T03:58:10;102000.94;;;4.44;82.48
38630;BME280;24384;51.988;4.644;2023-04-26T04:00:37;102002.63;;;4.39;82.43
38630;BME280;24384;51.988;4.644;2023-04-26T04:03:02;102000.84;;;4.37;82.16
38630;BME280;24384;51.988;4.644;2023-04-26T04:05:28;102009.47;;;4.28;82.80
38630;BME280;24384;51.988;4.644;2023-04-26T04:07:54;102003.34;;;4.26;82.31
38630;BME280;24384;51.988;4.644;2023-04-26T04:10:20;102004.09;;;4.14;82.93
38630;BME280;24384;51.988;4.644;2023-04-26T04:12:47;102005.72;;;4.06;84.62
38630;BME280;24384;51.988;4.644;2023-04-26T04:15:12;102004.75;;;3.99;85.34
38630;BME280;24384;51.988;4.644;2023-04-26T04:17:37;102002.22;;;4.04;85.03
38630;BME280;24384;51.988;4.644;2023-04-26T04:20:02;102014.44;;;4.06;86.04
38630;BME280;24384;51.988;4.644;2023-04-26T04:22:31;102006.56;;;4.03;86.13
38630;BME280;24384;51.988;4.644;2023-04-26T04:24:57;102018.69;;;4.00;85.46
38630;BME280;24384;51.988;4.644;2023-04-26T04:27:24;102015.41;;;4.16;84.57
38630;BME280;24384;51.988;4.644;2023-04-26T04:29:49;102018.88;;;4.15;84.81
38630;BME280;24384;51.988;4.644;2023-04-26T04:32:15;102027.59;;;4.16;85.21
38630;BME280;24384;51.988;4.644;2023-04-26T04:34:41;102024.13;;;4.18;84.99
38630;BME280;24384;51.988;4.644;2023-04-26T04:37:06;102022.41;;;4.17;85.89
38630;BME280;24384;51.988;4.644;2023-04-26T04:39:31;102024.13;;;4.18;86.18
38630;BME280;24384;51.988;4.644;2023-04-26T04:41:56;102014.66;;;4.25;86.43
38630;BME280;24384;51.988;4.644;2023-04-26T04:44:22;102021.56;;;4.21;85.97
38630;BME280;24384;51.988;4.644;2023-04-26T04:46:49;102025.16;;;4.28;85.29
38630;BME280;24384;51.988;4.644;2023-04-26T04:49:14;102018.16;;;4.27;86.08
38630;BME280;24384;51.988;4.644;2023-04-26T04:51:40;102021.81;;;4.41;86.12
38630;BME280;24384;51.988;4.644;2023-04-26T04:54:09;102022.78;;;4.50;86.34
38630;BME280;24384;51.988;4.644;2023-04-26T04:56:34;102017.69;;;4.60;85.83
38630;BME280;24384;51.988;4.644;2023-04-26T04:59:00;102029.91;;;4.68;85.71
38630;BME280;24384;51.988;4.644;2023-04-26T05:01:25;102019.50;;;4.72;85.70
38630;BME280;24384;51.988;4.644;2023-04-26T05:03:50;102022.06;;;4.66;85.82
38630;BME280;24384;51.988;4.644;2023-04-26T05:06:15;102032.72;;;4.86;85.52
38630;BME280;24384;51.988;4.644;2023-04-26T05:08:40;102021.44;;;4.90;85.17
38630;BME280;24384;51.988;4.644;2023-04-26T05:11:06;102023.31;;;5.02;84.66
38630;BME280;24384;51.988;4.644;2023-04-26T05:13:31;102021.72;;;5.23;82.68
38630;BME280;24384;51.988;4.644;2023-04-26T05:15:56;102021.44;;;4.90;83.61
38630;BME280;24384;51.988;4.644;2023-04-26T05:18:21;102025.94;;;5.05;83.60
38630;BME280;24384;51.988;4.644;2023-04-26T05:20:46;102018.16;;;5.13;83.16
38630;BME280;24384;51.988;4.644;2023-04-26T05:23:12;102020.72;;;5.07;83.44
38630;BME280;24384;51.988;4.644;2023-04-26T05:25:37;102019.81;;;5.03;82.72
38630;BME280;24384;51.988;4.644;2023-04-26T05:28:02;102020.88;;;5.25;83.70
38630;BME280;24384;51.988;4.644;2023-04-26T05:30:27;102023.47;;;5.22;83.97
38630;BME280;24384;51.988;4.644;2023-04-26T05:32:52;102022.69;;;5.35;83.93
38630;BME280;24384;51.988;4.644;2023-04-26T05:35:19;102021.06;;;5.53;83.68
38630;BME280;24384;51.988;4.644;2023-04-26T05:37:44;102017.72;;;5.77;83.23
38630;BME280;24384;51.988;4.644;2023-04-26T05:40:09;102027.50;;;6.01;82.82
38630;BME280;24384;51.988;4.644;2023-04-26T05:42:36;102031.94;;;6.27;81.80
38630;BME280;24384;51.988;4.644;2023-04-26T05:45:01;102037.13;;;6.10;81.94
38630;BME280;24384;51.988;4.644;2023-04-26T05:47:26;102036.28;;;6.20;82.37
38630;BME280;24384;51.988;4.644;2023-04-26T05:49:51;102038.03;;;6.18;82.27
38630;BME280;24384;51.988;4.644;2023-04-26T05:52:17;102036.41;;;6.50;82.36
38630;BME280;24384;51.988;4.644;2023-04-26T05:54:42;102038.22;;;6.66;81.51
38630;BME280;24384;51.988;4.644;2023-04-26T05:57:08;102030.38;;;6.81;82.03
38630;BME280;24384;51.988;4.644;2023-04-26T05:59:36;102030.41;;;7.05;81.30
38630;BME280;24384;51.988;4.644;2023-04-26T06:02:01;102032.13;;;7.32;81.05
38630;BME280;24384;51.988;4.644;2023-04-26T06:04:26;102025.13;;;7.49;80.73
38630;BME280;24384;51.988;4.644;2023-04-26T06:06:53;102038.25;;;7.51;80.15
38630;BME280;24384;51.988;4.644;2023-04-26T06:09:18;102050.47;;;7.60;79.29
38630;BME280;24384;51.988;4.644;2023-04-26T06:11:43;102047.00;;;7.59;79.09
38630;BME280;24384;51.988;4.644;2023-04-26T06:14:09;102048.75;;;7.56;77.66
38630;BME280;24384;51.988;4.644;2023-04-26T06:16:34;102052.22;;;7.64;77.50
38630;BME280;24384;51.988;4.644;2023-04-26T06:18:59;102057.47;;;7.65;76.11
38630;BME280;24384;51.988;4.644;2023-04-26T06:21:25;102058.31;;;7.89;75.50
38630;BME280;24384;51.988;4.644;2023-04-26T06:23:51;102060.03;;;7.98;74.26
38630;BME280;24384;51.988;4.644;2023-04-26T06:26:16;102060.94;;;7.78;70.95
38630;BME280;24384;51.988;4.644;2023-04-26T06:28:41;102061.84;;;7.86;69.66
38630;BME280;24384;51.988;4.644;2023-04-26T06:31:06;102054.81;;;7.87;69.34
38630;BME280;24384;51.988;4.644;2023-04-26T06:33:31;102067.09;;;7.79;67.69
38630;BME280;24384;51.988;4.644;2023-04-26T06:35:57;102066.16;;;8.00;66.88
38630;BME280;24384;51.988;4.644;2023-04-26T06:38:22;102075.78;;;8.07;65.46
38630;BME280;24384;51.988;4.644;2023-04-26T06:40:47;102071.44;;;7.81;65.60
38630;BME280;24384;51.988;4.644;2023-04-26T06:43:12;102065.28;;;8.05;65.51
38630;BME280;24384;51.988;4.644;2023-04-26T06:45:37;102067.03;;;8.10;65.88
38630;BME280;24384;51.988;4.644;2023-04-26T06:48:02;102059.94;;;8.24;63.85
38630;BME280;24384;51.988;4.644;2023-04-26T06:50:29;102059.09;;;8.20;63.32
38630;BME280;24384;51.988;4.644;2023-04-26T06:52:54;102065.22;;;8.24;64.04
38630;BME280;24384;51.988;4.644;2023-04-26T06:55:20;102056.38;;;8.53;64.97
38630;BME280;24384;51.988;4.644;2023-04-26T06:57:45;102060.69;;;8.62;66.12
38630;BME280;24384;51.988;4.644;2023-04-26T07:00:10;102061.56;;;8.62;63.93
38630;BME280;24384;51.988;4.644;2023-04-26T07:02:36;102066.88;;;8.54;63.93
38630;BME280;24384;51.988;4.644;2023-04-26T07:05:01;102058.94;;;8.64;63.54
38630;BME280;24384;51.988;4.644;2023-04-26T07:07:27;102061.59;;;8.59;60.35
38630;BME280;24384;51.988;4.644;2023-04-26T07:09:52;102059.81;;;8.61;58.92
38630;BME280;24384;51.988;4.644;2023-04-26T07:12:17;102051.97;;;8.52;59.42
38630;BME280;24384;51.988;4.644;2023-04-26T07:14:42;102060.69;;;8.62;58.36
38630;BME280;24384;51.988;4.644;2023-04-26T07:17:09;102058.13;;;8.48;59.60
38630;BME280;24384;51.988;4.644;2023-04-26T07:19:35;102058.03;;;8.68;60.56
38630;BME280;24384;51.988;4.644;2023-04-26T07:22:00;102057.06;;;8.83;62.24
38630;BME280;24384;51.988;4.644;2023-04-26T07:24:25;102060.38;;;9.11;60.34
38630;BME280;24384;51.988;4.644;2023-04-26T07:26:51;102065.63;;;9.12;60.51
38630;BME280;24384;51.988;4.644;2023-04-26T07:29:16;102055.06;;;9.14;60.44
38630;BME280;24384;51.988;4.644;2023-04-26T07:31:42;102050.66;;;9.21;59.03
38630;BME280;24384;51.988;4.644;2023-04-26T07:34:08;102067.63;;;8.76;61.69
38630;BME280;24384;51.988;4.644;2023-04-26T07:36:33;102071.00;;;8.95;59.58
38630;BME280;24384;51.988;4.644;2023-04-26T07:38:58;102071.13;;;8.74;61.16
38630;BME280;24384;51.988;4.644;2023-04-26T07:41:23;102075.50;;;8.80;61.16
38630;BME280;24384;51.988;4.644;2023-04-26T07:43:48;102068.44;;;8.83;62.35
38630;BME280;24384;51.988;4.644;2023-04-26T07:46:14;102076.50;;;8.52;64.19
38630;BME280;24384;51.988;4.644;2023-04-26T07:48:39;102075.69;;;8.44;63.60
38630;BME280;24384;51.988;4.644;2023-04-26T07:51:08;102080.03;;;8.51;63.70
38630;BME280;24384;51.988;4.644;2023-04-26T07:53:34;102082.69;;;8.40;63.69
38630;BME280;24384;51.988;4.644;2023-04-26T07:55:59;102089.66;;;8.54;64.18
38630;BME280;24384;51.988;4.644;2023-04-26T07:58:24;102084.41;;;8.38;63.36
38630;BME280;24384;51.988;4.644;2023-04-26T08:00:49;102076.59;;;8.26;64.63
38630;BME280;24384;51.988;4.644;2023-04-26T08:03:16;102082.69;;;8.45;64.67
38630;BME280;24384;51.988;4.644;2023-04-26T08:05:44;102087.06;;;8.32;63.92
38630;BME280;24384;51.988;4.644;2023-04-26T08:08:11;102083.53;;;8.41;63.84
38630;BME280;24384;51.988;4.644;2023-04-26T08:10:38;102084.47;;;8.29;63.86
38630;BME280;24384;51.988;4.644;2023-04-26T08:13:04;102086.19;;;8.47;64.60
38630;BME280;24384;51.988;4.644;2023-04-26T08:15:29;102098.41;;;8.62;64.53
38630;BME280;24384;51.988;4.644;2023-04-26T08:17:55;102090.53;;;8.53;63.06
38630;BME280;24384;51.988;4.644;2023-04-26T08:20:21;102086.16;;;8.53;64.02
38630;BME280;24384;51.988;4.644;2023-04-26T08:22:47;102099.19;;;8.75;62.72
38630;BME280;24384;51.988;4.644;2023-04-26T08:25:13;102094.78;;;8.77;63.28
38630;BME280;24384;51.988;4.644;2023-04-26T08:27:38;102088.66;;;8.75;62.66
38630;BME280;24384;51.988;4.644;2023-04-26T08:30:04;102094.75;;;8.85;60.89
38630;BME280;24384;51.988;4.644;2023-04-26T08:32:31;102090.25;;;9.04;59.97
38630;BME280;24384;51.988;4.644;2023-04-26T08:34:57;102087.72;;;8.90;59.23
38630;BME280;24384;51.988;4.644;2023-04-26T08:37:23;102084.22;;;8.85;57.77
38630;BME280;24384;51.988;4.644;2023-04-26T08:39:48;102092.94;;;8.96;58.54
38630;BME280;24384;51.988;4.644;2023-04-26T08:42:14;102086.59;;;9.23;58.40
38630;BME280;24384;51.988;4.644;2023-04-26T08:44:43;102090.25;;;9.07;56.97
38630;BME280;24384;51.988;4.644;2023-04-26T08:47:12;102075.91;;;9.42;57.73
38630;BME280;24384;51.988;4.644;2023-04-26T08:49:44;102075.78;;;9.57;56.66
38630;BME280;24384;51.988;4.644;2023-04-26T08:52:12;102073.75;;;9.89;55.41
38630;BME280;24384;51.988;4.644;2023-04-26T08:54:39;102071.63;;;10.20;54.97
38630;BME280;24384;51.988;4.644;2023-04-26T08:57:05;102080.56;;;10.07;54.70
38630;BME280;24384;51.988;4.644;2023-04-26T08:59:32;102073.41;;;10.18;54.59
38630;BME280;24384;51.988;4.644;2023-04-26T09:01:57;102080.06;;;10.50;53.64
38630;BME280;24384;51.988;4.644;2023-04-26T09:04:24;102081.09;;;10.41;51.33
38630;BME280;24384;51.988;4.644;2023-04-26T09:06:49;102080.69;;;9.94;53.27
38630;BME280;24384;51.988;4.644;2023-04-26T09:09:17;102074.53;;;9.95;54.34
38630;BME280;24384;51.988;4.644;2023-04-26T09:11:56;102081.50;;;10.02;54.76
38630;BME280;24384;51.988;4.644;2023-04-26T09:14:22;102084.81;;;10.20;55.07
38630;BME280;24384;51.988;4.644;2023-04-26T09:16:48;102081.34;;;9.23;56.04
38630;BME280;24384;51.988;4.644;2023-04-26T09:19:13;102094.63;;;9.02;58.11
38630;BME280;24384;51.988;4.644;2023-04-26T09:21:42;102093.16;;;8.59;59.99
38630;BME280;24384;51.988;4.644;2023-04-26T09:24:11;102092.25;;;8.58;59.31
38630;BME280;24384;51.988;4.644;2023-04-26T09:26:36;102096.63;;;8.63;58.41
38630;BME280;24384;51.988;4.644;2023-04-26T09:29:14;102090.53;;;8.59;58.34
38630;BME280;24384;51.988;4.644;2023-04-26T09:31:47;102089.50;;;8.80;58.72
38630;BME280;24384;51.988;4.644;2023-04-26T09:34:13;102093.06;;;8.77;58.94
38630;BME280;24384;51.988;4.644;2023-04-26T09:36:51;102091.38;;;8.63;57.43
38630;BME280;24384;51.988;4.644;2023-04-26T09:41:55;102088.66;;;8.76;56.97
38630;BME280;24384;51.988;4.644;2023-04-26T09:44:21;102081.44;;;9.08;56.23
38630;BME280;24384;51.988;4.644;2023-04-26T09:46:56;102080.50;;;9.20;55.45
38630;BME280;24384;51.988;4.644;2023-04-26T09:49:21;102080.53;;;9.15;57.34
38630;BME280;24384;51.988;4.644;2023-04-26T09:52:00;102094.59;;;9.09;55.50
38630;BME280;24384;51.988;4.644;2023-04-26T09:54:36;102087.34;;;9.41;56.14
38630;BME280;24384;51.988;4.644;2023-04-26T09:57:01;102084.69;;;9.45;57.45
38630;BME280;24384;51.988;4.644;2023-04-26T09:59:37;102084.88;;;9.21;59.44
38630;BME280;24384;51.988;4.644;2023-04-26T10:02:03;102088.47;;;9.09;59.71
38630;BME280;24384;51.988;4.644;2023-04-26T10:04:28;102084.91;;;9.16;61.00
38630;BME280;24384;51.988;4.644;2023-04-26T10:06:55;102098.19;;;8.98;60.98
38630;BME280;24384;51.988;4.644;2023-04-26T10:09:21;102096.41;;;9.03;61.29
38630;BME280;24384;51.988;4.644;2023-04-26T10:11:46;102101.03;;;8.57;61.68
38630;BME280;24384;51.988;4.644;2023-04-26T10:14:12;102091.31;;;8.73;59.77
38630;BME280;24384;51.988;4.644;2023-04-26T10:16:38;102095.56;;;8.98;60.02
38630;BME280;24384;51.988;4.644;2023-04-26T10:19:03;102089.22;;;9.23;58.25
38630;BME280;24384;51.988;4.644;2023-04-26T10:21:29;102091.66;;;9.49;58.93
38630;BME280;24384;51.988;4.644;2023-04-26T10:23:55;102082.88;;;9.49;56.48
38630;BME280;24384;51.988;4.644;2023-04-26T10:29:07;102085.91;;;10.00;56.26
38630;BME280;24384;51.988;4.644;2023-04-26T10:34:34;102083.13;;;10.11;55.19
38630;BME280;24384;51.988;4.644;2023-04-26T10:37:07;102080.69;;;9.93;55.29
38630;BME280;24384;51.988;4.644;2023-04-26T10:39:33;102089.25;;;10.18;55.26
38630;BME280;24384;51.988;4.644;2023-04-26T10:44:47;102077.50;;;10.44;50.13
38630;BME280;24384;51.988;4.644;2023-04-26T10:47:22;102075.41;;;10.69;50.08
38630;BME280;24384;51.988;4.644;2023-04-26T10:49:48;102067.88;;;11.05;52.92
38630;BME280;24384;51.988;4.644;2023-04-26T10:52:14;102067.22;;;11.45;49.39
38630;BME280;24384;51.988;4.644;2023-04-26T10:54:50;102054.72;;;12.03;46.81
38630;BME280;24384;51.988;4.644;2023-04-26T10:57:16;102062.13;;;12.71;45.01
38630;BME280;24384;51.988;4.644;2023-04-26T11:05:32;102043.53;;;14.42;39.08
38630;BME280;24384;51.988;4.644;2023-04-26T11:08:05;102032.94;;;14.72;42.48
38630;BME280;24384;51.988;4.644;2023-04-26T11:10:31;102033.75;;;14.44;37.66
38630;BME280;24384;51.988;4.644;2023-04-26T11:13:01;102027.41;;;15.07;39.71
38630;BME280;24384;51.988;4.644;2023-04-26T11:15:27;102032.00;;;15.53;37.25
38630;BME280;24384;51.988;4.644;2023-04-26T11:17:53;102023.66;;;15.89;37.82
38630;BME280;24384;51.988;4.644;2023-04-26T11:20:19;102021.69;;;15.44;35.26
38630;BME280;24384;51.988;4.644;2023-04-26T11:22:44;102018.53;;;15.08;37.98
38630;BME280;24384;51.988;4.644;2023-04-26T11:25:11;102017.78;;;14.76;39.31
38630;BME280;24384;51.988;4.644;2023-04-26T11:27:37;102018.81;;;14.98;39.55
38630;BME280;24384;51.988;4.644;2023-04-26T11:30:02;102017.22;;;15.19;37.57
38630;BME280;24384;51.988;4.644;2023-04-26T11:32:28;102019.44;;;14.80;40.21
38630;BME280;24384;51.988;4.644;2023-04-26T11:34:54;102021.50;;;14.40;39.96
38630;BME280;24384;51.988;4.644;2023-04-26T11:37:19;102020.69;;;14.07;38.94
38630;BME280;24384;51.988;4.644;2023-04-26T11:39:44;102011.38;;;13.60;40.64
38630;BME280;24384;51.988;4.644;2023-04-26T11:42:10;102020.22;;;13.61;41.60
38630;BME280;24384;51.988;4.644;2023-04-26T11:44:35;102013.09;;;12.91;43.13
38630;BME280;24384;51.988;4.644;2023-04-26T11:47:01;102021.59;;;12.68;41.21
38630;BME280;24384;51.988;4.644;2023-04-26T11:49:32;102018.41;;;12.53;41.90
38630;BME280;24384;51.988;4.644;2023-04-26T11:51:57;102015.88;;;12.07;44.51
38630;BME280;24384;51.988;4.644;2023-04-26T11:54:26;102026.25;;;12.17;43.99
38630;BME280;24384;51.988;4.644;2023-04-26T11:56:52;102018.31;;;12.17;45.06
38630;BME280;24384;51.988;4.644;2023-04-26T11:59:24;102014.31;;;12.39;42.66
38630;BME280;24384;51.988;4.644;2023-04-26T12:01:49;102022.22;;;11.98;42.70
38630;BME280;24384;51.988;4.644;2023-04-26T12:04:16;102026.19;;;12.21;43.92
38630;BME280;24384;51.988;4.644;2023-04-26T12:06:42;102024.09;;;12.35;43.90
38630;BME280;24384;51.988;4.644;2023-04-26T12:09:08;102023.13;;;12.39;44.41
38630;BME280;24384;51.988;4.644;2023-04-26T12:11:34;102026.13;;;13.00;44.86
38630;BME280;24384;51.988;4.644;2023-04-26T12:14:00;102021.00;;;13.96;42.46
38630;BME280;24384;51.988;4.644;2023-04-26T12:16:27;102017.88;;;14.73;41.02
38630;BME280;24384;51.988;4.644;2023-04-26T12:18:52;102023.91;;;14.48;38.96
38630;BME280;24384;51.988;4.644;2023-04-26T12:21:18;102025.13;;;14.36;40.64
38630;BME280;24384;51.988;4.644;2023-04-26T12:23:43;102026.50;;;14.21;40.05
38630;BME280;24384;51.988;4.644;2023-04-26T12:26:11;102024.47;;;14.29;40.94
38630;BME280;24384;51.988;4.644;2023-04-26T12:28:37;102025.38;;;13.99;39.93
38630;BME280;24384;51.988;4.644;2023-04-26T12:31:03;102015.91;;;13.88;41.83
38630;BME280;24384;51.988;4.644;2023-04-26T12:33:30;102026.47;;;13.90;36.39
38630;BME280;24384;51.988;4.644;2023-04-26T12:35:56;102025.84;;;14.43;37.12
38630;BME280;24384;51.988;4.644;2023-04-26T12:38:24;102026.63;;;14.17;39.26
38630;BME280;24384;51.988;4.644;2023-04-26T12:40:49;102022.06;;;13.57;41.63
38630;BME280;24384;51.988;4.644;2023-04-26T12:43:16;102016.72;;;13.59;43.52
38630;BME280;24384;51.988;4.644;2023-04-26T12:45:41;102020.63;;;13.46;42.04
38630;BME280;24384;51.988;4.644;2023-04-26T12:48:07;102023.91;;;13.19;41.86
38630;BME280;24384;51.988;4.644;2023-04-26T12:50:32;102018.94;;;13.07;42.49
38630;BME280;24384;51.988;4.644;2023-04-26T12:52:57;102014.41;;;13.11;42.07
38630;BME280;24384;51.988;4.644;2023-04-26T12:55:22;102015.16;;;13.85;42.08
38630;BME280;24384;51.988;4.644;2023-04-26T12:57:48;102003.34;;;15.36;40.77
38630;BME280;24384;51.988;4.644;2023-04-26T13:00:13;102009.88;;;16.27;43.57
38630;BME280;24384;51.988;4.644;2023-04-26T13:02:39;102013.41;;;15.80;42.03
38630;BME280;24384;51.988;4.644;2023-04-26T13:05:05;102018.19;;;14.90;42.02
38630;BME280;24384;51.988;4.644;2023-04-26T13:07:31;102018.25;;;14.89;41.35